Thedford, NE (69166)

9:15 AM CDT on October 31, 2014 (GMT -0500)
Thedford | Change Station
CLOSE
Current Station
Airport
Location: Thedford,
Elevation: 2927 ft
Nearby Weather Stations

Elev 2927 ft 41.96 °N, 100.57 °W | Updated 20 minutes ago

Overcast
Overcast
28 °F
Feels Like 23 °F
N
5
Wind Variable Wind from East

Today
High -- | Low -- °F
--% Chance of Precip.
Yesterday
High -- | Low -- °F
Precip. -- in
8:13 AM 6:37 PM
First Quarter, 55% visible
Pressure 30.51 in
Visibility 10.0 miles
Clouds Overcast 1100 ft
Windchill 23 °F
Dew Point 24 °F
Humidity 85%
Rainfall 0.00 in
Snow Depth Not available.
UV 0 out of 12
Pollen .10 out of 12
Air Quality Not available.
Flu Activity Not available.
METAR KTIF 311355Z AUTO 10004KT 10SM OVC011 M02/M04 A3051 RMK AO2 T10201042

More Conditions Fewer Conditions

Pressure 30.51 in
Visibility 10.0 miles
Clouds Overcast 1100 ft
Windchill 23 °F
Dew Point 24 °F
Humidity 85%
Rainfall 0.00 in
Snow Depth Not available.
UV 0 out of 12
Pollen .10 out of 12
Air Quality Not available.
Flu Activity Not available.
METAR KTIF 311355Z AUTO 10004KT 10SM OVC011 M02/M04 A3051 RMK AO2 T10201042

More Conditions Fewer Conditions

10-Day Weather Forecast

Almanac

Astronomy

Oct. 31, 2014 Rise Set
Actual Time
Civil Twilight
Nautical Twilight
Astronomical Twilight
Moon
Length of Visible Light
Length of Day
Tomorrow will be .
, % of the Moon is Illuminated

Today's Extremes

State Highs State Lows

Community

WunderPhotos

Upload Photos

1,766,617 photos uploaded!

WunderBlogs® & News

Nearby

Air Quality

  Air Quality AQ Index Pollutant
Not available.

Snow Depth

Station Depth Elevation

Earthquake Activity

City Distance Mag. Time & Date
Minimum magnitude displayed is 2.5.

Coastal Water Temperatures

Place Temperature

Nearby Weather Stations